createdAt,value
2018-08-17T00:00:09.051Z,59.70
2018-08-17T00:02:37.407Z,59.90
2018-08-17T00:05:05.837Z,60.30
2018-08-17T00:07:34.458Z,60.00
2018-08-17T00:10:02.904Z,60.30
2018-08-17T00:12:31.354Z,60.20
2018-08-17T00:14:59.740Z,60.20
2018-08-17T00:17:28.111Z,60.30
2018-08-17T00:19:56.538Z,60.40
2018-08-17T00:22:24.899Z,60.60
2018-08-17T00:24:53.366Z,60.40
2018-08-17T00:27:21.901Z,60.60
2018-08-17T00:29:50.271Z,60.70
2018-08-17T00:32:19.053Z,61.00
2018-08-17T00:34:47.562Z,61.30
2018-08-17T00:37:15.995Z,61.20
2018-08-17T00:39:44.491Z,61.40
2018-08-17T00:42:12.905Z,61.40
2018-08-17T00:44:41.303Z,61.40
2018-08-17T00:47:09.812Z,61.30
2018-08-17T00:49:38.290Z,61.50
2018-08-17T00:52:06.713Z,61.80
2018-08-17T00:54:35.124Z,61.90
2018-08-17T00:57:03.571Z,61.90
2018-08-17T00:59:32.066Z,61.90
2018-08-17T01:02:00.422Z,61.80
2018-08-17T01:04:28.843Z,62.60
2018-08-17T01:06:57.207Z,62.00
2018-08-17T01:09:25.662Z,62.20
2018-08-17T01:11:54.002Z,62.10
2018-08-17T01:14:22.412Z,62.00
2018-08-17T01:16:50.861Z,61.80
2018-08-17T01:19:19.267Z,61.80
2018-08-17T01:21:47.615Z,61.80
2018-08-17T01:24:16.018Z,61.80
2018-08-17T01:26:44.379Z,62.00
2018-08-17T01:29:12.806Z,62.10
2018-08-17T01:31:41.161Z,62.20
2018-08-17T01:34:09.552Z,62.20
2018-08-17T01:36:37.955Z,62.10
2018-08-17T01:39:08.045Z,62.10
2018-08-17T01:41:36.455Z,62.10
2018-08-17T01:44:04.964Z,62.10
2018-08-17T01:46:33.446Z,62.10
2018-08-17T01:49:02.069Z,62.10
2018-08-17T01:51:30.511Z,62.10
2018-08-17T01:53:59.040Z,62.10
2018-08-17T01:56:27.530Z,62.00
2018-08-17T01:58:55.951Z,62.00
2018-08-17T02:01:24.455Z,61.90
2018-08-17T02:03:52.959Z,61.90
2018-08-17T02:06:21.738Z,61.80
2018-08-17T02:08:50.178Z,61.90
2018-08-17T02:11:18.665Z,62.00
2018-08-17T02:13:47.046Z,61.80
2018-08-17T02:16:15.422Z,61.80
2018-08-17T02:18:43.822Z,61.80
2018-08-17T02:21:12.172Z,61.40
2018-08-17T02:23:40.612Z,61.20
2018-08-17T02:26:08.963Z,61.00
2018-08-17T02:28:37.366Z,61.60
2018-08-17T02:31:05.795Z,61.60
2018-08-17T02:33:34.351Z,61.10
2018-08-17T02:36:02.696Z,61.00
2018-08-17T02:38:31.147Z,61.00
2018-08-17T02:40:59.510Z,61.00
2018-08-17T02:43:27.910Z,61.00
2018-08-17T02:45:56.263Z,61.00
2018-08-17T02:48:24.847Z,61.10
2018-08-17T02:50:53.633Z,61.20
2018-08-17T02:53:22.046Z,61.30
2018-08-17T02:55:50.454Z,61.40
2018-08-17T02:58:18.855Z,61.50
2018-08-17T03:00:47.191Z,61.60
2018-08-17T03:03:15.611Z,61.60
2018-08-17T03:05:44.126Z,61.80
2018-08-17T03:08:12.596Z,61.80
2018-08-17T03:10:41.067Z,61.80
2018-08-17T03:13:09.481Z,62.20
2018-08-17T03:15:37.824Z,62.20
2018-08-17T03:18:06.364Z,62.20
2018-08-17T03:20:34.779Z,62.40
2018-08-17T03:23:03.361Z,63.40
2018-08-17T03:25:31.722Z,62.70
2018-08-17T03:28:00.067Z,62.80
2018-08-17T03:30:28.506Z,62.90
2018-08-17T03:32:56.893Z,62.80
2018-08-17T03:35:25.258Z,62.90
2018-08-17T03:37:53.722Z,62.90
2018-08-17T03:40:22.050Z,63.10
2018-08-17T03:42:50.597Z,62.90
2018-08-17T03:45:18.975Z,63.00
2018-08-17T03:47:47.389Z,63.20
2018-08-17T03:50:15.736Z,62.90
2018-08-17T03:52:44.144Z,63.00
2018-08-17T03:55:12.999Z,63.00
2018-08-17T03:57:41.386Z,62.80
2018-08-17T04:00:09.778Z,62.80
2018-08-17T04:02:38.194Z,62.80
2018-08-17T04:05:06.649Z,62.70
2018-08-17T04:07:35.289Z,62.70
2018-08-17T04:10:03.840Z,62.70
2018-08-17T04:12:32.174Z,62.70
2018-08-17T04:15:00.594Z,63.50
2018-08-17T04:17:28.921Z,62.80
2018-08-17T04:19:57.293Z,62.80
2018-08-17T04:22:25.770Z,62.70
2018-08-17T04:24:54.127Z,63.00
2018-08-17T04:27:22.658Z,63.10
2018-08-17T04:29:51.009Z,62.80
2018-08-17T04:32:19.410Z,62.80
2018-08-17T04:34:47.754Z,62.80
2018-08-17T04:37:16.119Z,63.20
2018-08-17T04:39:44.526Z,62.40
2018-08-17T04:42:12.903Z,62.30
2018-08-17T04:44:41.287Z,62.20
2018-08-17T04:47:09.678Z,62.20
2018-08-17T04:49:38.008Z,62.00
2018-08-17T04:52:06.431Z,62.10
2018-08-17T04:54:34.770Z,62.10
2018-08-17T04:57:03.201Z,62.00
2018-08-17T04:59:31.950Z,61.90
2018-08-17T05:02:00.402Z,62.00
2018-08-17T05:04:28.791Z,62.10
2018-08-17T05:06:57.203Z,62.20
2018-08-17T05:09:25.835Z,62.20
2018-08-17T05:11:54.186Z,62.30
2018-08-17T05:14:22.570Z,62.10
2018-08-17T05:16:51.246Z,62.30
2018-08-17T05:19:19.698Z,62.40
2018-08-17T05:21:48.101Z,62.70
2018-08-17T05:24:16.867Z,62.60
2018-08-17T05:26:45.786Z,62.90
2018-08-17T05:29:14.150Z,62.80
2018-08-17T05:31:42.571Z,62.90
2018-08-17T05:34:10.968Z,62.70
2018-08-17T05:36:39.323Z,62.70
2018-08-17T05:39:08.386Z,62.80
2018-08-17T05:41:36.803Z,62.80
2018-08-17T05:44:05.352Z,62.80
2018-08-17T05:46:33.779Z,62.50
2018-08-17T05:49:02.113Z,62.50
2018-08-17T05:51:30.532Z,62.30
2018-08-17T05:53:58.867Z,62.00
2018-08-17T05:56:27.473Z,62.40
2018-08-17T05:58:55.795Z,62.30
2018-08-17T06:01:24.227Z,62.30
2018-08-17T06:03:53.490Z,62.60
2018-08-17T06:06:21.898Z,62.50
2018-08-17T06:08:50.433Z,62.40
2018-08-17T06:11:19.189Z,62.60
2018-08-17T06:13:47.415Z,62.40
2018-08-17T06:16:15.876Z,62.60
2018-08-17T06:18:44.255Z,62.90
2018-08-17T06:21:13.002Z,62.90
2018-08-17T06:23:41.348Z,62.80
2018-08-17T06:26:10.166Z,62.90
2018-08-17T06:28:38.490Z,62.80
2018-08-17T06:31:06.934Z,63.00
2018-08-17T06:33:35.352Z,63.30
2018-08-17T06:36:03.754Z,63.80
2018-08-17T06:38:32.115Z,64.40
2018-08-17T06:41:00.481Z,65.90
2018-08-17T06:43:28.809Z,67.30
2018-08-17T06:45:57.250Z,67.90
2018-08-17T06:48:25.609Z,68.50
2018-08-17T06:50:54.125Z,68.90
2018-08-17T06:53:22.420Z,69.60
2018-08-17T06:55:50.814Z,70.50
2018-08-17T06:58:19.327Z,71.30
2018-08-17T07:00:47.694Z,71.60
2018-08-17T07:03:16.010Z,72.40
2018-08-17T07:05:44.403Z,72.90
2018-08-17T07:08:12.763Z,72.30
2018-08-17T07:10:41.423Z,72.90
2018-08-17T07:13:09.799Z,73.60
2018-08-17T07:15:38.201Z,74.20
2018-08-17T07:18:06.599Z,74.60
2018-08-17T07:20:35.160Z,74.60
2018-08-17T07:23:03.563Z,74.60
2018-08-17T07:25:31.916Z,74.80
2018-08-17T07:28:00.319Z,75.50
2018-08-17T07:30:28.729Z,74.60
2018-08-17T07:32:57.062Z,73.70
2018-08-17T07:35:25.451Z,74.50
2018-08-17T07:37:53.887Z,74.60
2018-08-17T07:40:22.223Z,75.20
2018-08-17T07:42:50.642Z,75.90
2018-08-17T07:45:19.025Z,75.90
2018-08-17T07:47:47.462Z,75.60
2018-08-17T07:50:17.124Z,76.50
2018-08-17T07:52:46.005Z,76.90
2018-08-17T07:55:14.482Z,76.90
2018-08-17T07:57:42.878Z,77.20
2018-08-17T08:00:11.959Z,76.80
2018-08-17T08:02:40.436Z,76.60
2018-08-17T08:05:10.149Z,76.40
2018-08-17T08:07:39.702Z,76.40
2018-08-17T08:10:09.276Z,76.00
2018-08-17T08:12:37.674Z,75.60
2018-08-17T08:15:06.424Z,75.80
2018-08-17T08:17:34.819Z,76.10
2018-08-17T08:20:14.447Z,75.80
2018-08-17T08:22:43.123Z,75.80
2018-08-17T08:25:11.541Z,75.50
2018-08-17T08:27:39.887Z,75.90
2018-08-17T08:30:08.611Z,75.90
2018-08-17T08:32:37.250Z,77.00
2018-08-17T08:35:06.620Z,76.40
2018-08-17T08:37:35.001Z,76.30
2018-08-17T08:40:03.438Z,76.30
2018-08-17T08:42:31.842Z,76.30
2018-08-17T08:45:00.338Z,76.20
2018-08-17T08:47:28.772Z,76.10
2018-08-17T08:49:57.250Z,76.20
2018-08-17T08:52:25.659Z,76.30
2018-08-17T08:54:54.057Z,76.10
2018-08-17T08:57:22.400Z,75.40
2018-08-17T08:59:50.802Z,77.00
2018-08-17T09:02:19.159Z,76.10
2018-08-17T09:04:47.602Z,75.40
2018-08-17T09:07:16.004Z,75.40
2018-08-17T09:09:44.526Z,75.50
2018-08-17T09:12:13.094Z,75.60
2018-08-17T09:14:41.493Z,75.90
2018-08-17T09:17:09.887Z,76.30
2018-08-17T09:19:38.292Z,77.10
2018-08-17T09:22:06.924Z,75.70
2018-08-17T09:24:35.369Z,74.00
2018-08-17T09:27:03.866Z,73.80
2018-08-17T09:29:32.313Z,72.70
2018-08-17T09:32:00.777Z,75.10
2018-08-17T09:34:29.264Z,75.00
2018-08-17T09:36:57.804Z,72.40
2018-08-17T09:39:26.637Z,72.20
2018-08-17T09:41:55.174Z,71.50
2018-08-17T09:44:23.635Z,71.20
2018-08-17T09:46:52.033Z,70.00
2018-08-17T09:49:20.559Z,70.20
2018-08-17T09:51:48.890Z,71.20
2018-08-17T09:54:17.237Z,70.40
2018-08-17T09:56:45.689Z,71.10
2018-08-17T09:59:14.175Z,70.50
2018-08-17T10:01:47.930Z,69.80
2018-08-17T10:04:21.584Z,70.90
2018-08-17T10:06:55.393Z,71.80
2018-08-17T10:09:24.072Z,71.30
2018-08-17T10:11:52.856Z,71.30
2018-08-17T10:14:21.607Z,71.30
2018-08-17T10:16:49.943Z,71.20
2018-08-17T10:19:18.402Z,72.00
2018-08-17T10:21:54.744Z,71.70
2018-08-17T10:24:23.382Z,71.60
2018-08-17T10:26:53.063Z,71.50
2018-08-17T10:29:22.695Z,72.40
2018-08-17T10:31:51.165Z,72.60
2018-08-17T10:34:19.904Z,72.70
2018-08-17T10:36:48.267Z,72.30
2018-08-17T10:39:16.675Z,72.60
2018-08-17T10:41:45.017Z,72.00
2018-08-17T10:44:13.431Z,72.00
2018-08-17T10:46:42.365Z,73.20
2018-08-17T10:49:11.149Z,73.40
2018-08-17T10:51:39.616Z,72.60
2018-08-17T10:54:07.963Z,71.80
2018-08-17T10:56:36.352Z,71.90
2018-08-17T10:59:04.738Z,71.10
2018-08-17T11:01:33.117Z,71.00
2018-08-17T11:04:01.520Z,69.70
2018-08-17T11:06:29.901Z,68.90
2018-08-17T11:08:58.356Z,70.00
2018-08-17T11:11:26.758Z,70.00
2018-08-17T11:13:55.135Z,70.10
2018-08-17T11:16:23.487Z,70.20
2018-08-17T11:18:51.856Z,70.10
2018-08-17T11:21:20.244Z,70.20
2018-08-17T11:23:48.726Z,70.00
2018-08-17T11:26:17.102Z,69.60
2018-08-17T11:28:45.507Z,68.60
2018-08-17T11:31:13.900Z,69.20
2018-08-17T11:33:42.370Z,69.60
2018-08-17T11:36:11.144Z,68.80
2018-08-17T11:38:39.727Z,69.40
2018-08-17T11:41:09.894Z,69.10
2018-08-17T11:43:38.261Z,69.60
2018-08-17T11:46:06.699Z,70.30
2018-08-17T11:48:35.119Z,69.30
2018-08-17T11:51:03.608Z,70.00
2018-08-17T11:53:32.069Z,70.20
2018-08-17T11:56:00.430Z,70.20
2018-08-17T11:58:28.798Z,70.90
2018-08-17T12:00:57.285Z,70.40
2018-08-17T12:03:25.607Z,70.60
2018-08-17T12:05:53.970Z,70.90
2018-08-17T12:08:22.550Z,68.00
2018-08-17T12:11:06.451Z,67.70
2018-08-17T12:13:38.015Z,69.00
2018-08-17T12:16:06.932Z,68.30
2018-08-17T12:18:35.510Z,67.50
2018-08-17T12:21:03.850Z,66.40
2018-08-17T12:23:32.260Z,66.30
2018-08-17T12:26:00.619Z,66.50
2018-08-17T12:28:32.402Z,65.20
2018-08-17T12:31:01.047Z,65.50
2018-08-17T12:33:29.422Z,66.20
2018-08-17T12:35:57.806Z,66.20
2018-08-17T12:38:26.179Z,66.00
2018-08-17T12:40:56.626Z,66.10
2018-08-17T12:43:30.430Z,67.30
2018-08-17T12:45:58.839Z,67.30
2018-08-17T12:48:27.270Z,67.50
2018-08-17T12:50:59.862Z,67.00
2018-08-17T12:53:28.274Z,66.90
2018-08-17T12:55:56.663Z,66.60
2018-08-17T12:58:25.008Z,66.10
2018-08-17T13:00:53.492Z,66.00
2018-08-17T13:03:21.880Z,64.60
2018-08-17T13:05:50.295Z,65.60
2018-08-17T13:08:18.726Z,64.50
2018-08-17T13:10:47.208Z,65.00
2018-08-17T13:13:15.564Z,64.40
2018-08-17T13:16:18.934Z,64.30
2018-08-17T13:18:47.289Z,65.00
2018-08-17T13:21:15.673Z,63.50
2018-08-17T13:23:44.018Z,64.10
2018-08-17T13:26:13.324Z,64.80
2018-08-17T13:28:41.671Z,64.00
2018-08-17T13:31:10.069Z,61.50
2018-08-17T13:33:38.438Z,60.00
2018-08-17T13:36:06.855Z,59.90
2018-08-17T13:38:35.328Z,59.80
2018-08-17T13:41:03.787Z,60.30
2018-08-17T13:43:32.142Z,60.40
2018-08-17T13:46:00.499Z,61.70
2018-08-17T13:48:28.903Z,60.80
2018-08-17T13:50:57.367Z,58.00
2018-08-17T13:53:25.823Z,57.50
2018-08-17T13:55:54.199Z,58.20
2018-08-17T13:58:22.683Z,55.80
2018-08-17T14:00:51.074Z,56.10
2018-08-17T14:03:19.542Z,55.60
2018-08-17T14:05:47.924Z,56.00
2018-08-17T14:08:16.381Z,56.70
2018-08-17T14:10:44.694Z,55.70
2018-08-17T14:13:13.151Z,57.10
2018-08-17T14:15:41.584Z,58.10
2018-08-17T14:18:09.987Z,57.00
2018-08-17T14:20:38.399Z,55.40
2018-08-17T14:23:06.843Z,54.20
2018-08-17T14:25:35.203Z,54.30
2018-08-17T14:28:03.583Z,52.70
2018-08-17T14:30:31.970Z,52.90
2018-08-17T14:33:00.396Z,53.40
2018-08-17T14:35:28.723Z,52.70
2018-08-17T14:37:57.176Z,51.80
2018-08-17T14:40:26.685Z,50.40
2018-08-17T14:42:54.965Z,48.40
2018-08-17T14:45:23.434Z,47.90
2018-08-17T14:47:51.921Z,46.90
2018-08-17T14:50:20.447Z,45.40
2018-08-17T14:52:48.884Z,45.80
2018-08-17T14:55:17.364Z,46.60
2018-08-17T14:57:46.039Z,45.60
2018-08-17T15:00:17.326Z,45.50
2018-08-17T15:02:45.734Z,44.30
2018-08-17T15:05:15.118Z,44.50
2018-08-17T15:07:43.614Z,44.60
2018-08-17T15:10:14.288Z,44.70
2018-08-17T15:12:43.479Z,45.30
2018-08-17T15:15:12.676Z,44.60
2018-08-17T15:17:41.092Z,45.80
2018-08-17T15:20:10.678Z,43.10
2018-08-17T15:22:39.143Z,44.00
2018-08-17T15:25:07.576Z,44.30
2018-08-17T15:27:35.998Z,43.00
2018-08-17T15:30:06.320Z,43.20
2018-08-17T15:32:34.728Z,41.80
2018-08-17T15:35:03.095Z,43.20
2018-08-17T15:37:31.555Z,43.80
2018-08-17T15:39:59.970Z,43.60
2018-08-17T15:42:28.494Z,42.80
2018-08-17T15:44:56.861Z,41.80
2018-08-17T15:47:25.350Z,42.20
2018-08-17T15:50:13.441Z,41.20
2018-08-17T15:52:42.406Z,41.30
2018-08-17T15:55:10.872Z,41.60
2018-08-17T15:57:39.551Z,41.50
2018-08-17T16:00:12.988Z,41.20
2018-08-17T16:02:41.491Z,42.20
2018-08-17T16:05:09.931Z,42.10
2018-08-17T16:07:38.413Z,43.00
2018-08-17T16:10:08.591Z,42.40
2018-08-17T16:12:37.032Z,43.00
2018-08-17T16:15:06.552Z,42.70
2018-08-17T16:17:35.226Z,42.40
2018-08-17T16:20:03.679Z,41.40
2018-08-17T16:22:32.177Z,41.20
2018-08-17T16:25:00.536Z,42.40
2018-08-17T16:27:28.934Z,41.30
2018-08-17T16:29:57.295Z,40.10
2018-08-17T16:32:25.700Z,39.80
2018-08-17T16:34:54.100Z,39.70
2018-08-17T16:37:22.567Z,40.60
2018-08-17T16:39:52.923Z,39.50
2018-08-17T16:42:26.695Z,39.30
2018-08-17T16:44:55.484Z,38.80
2018-08-17T16:47:23.774Z,38.30
2018-08-17T16:49:52.204Z,39.80
2018-08-17T16:52:20.606Z,40.00
2018-08-17T16:54:49.025Z,40.00
2018-08-17T16:57:17.371Z,40.10
2018-08-17T16:59:45.770Z,41.20
2018-08-17T17:02:14.137Z,41.60
2018-08-17T17:04:43.578Z,42.30
2018-08-17T17:07:11.979Z,42.20
2018-08-17T17:09:40.567Z,42.70
2018-08-17T17:12:12.336Z,43.40
2018-08-17T17:14:40.922Z,43.70
2018-08-17T17:17:09.290Z,43.20
2018-08-17T17:19:37.802Z,43.70
2018-08-17T17:22:06.239Z,43.40
2018-08-17T17:24:34.698Z,43.60
2018-08-17T17:27:03.112Z,43.30
2018-08-17T17:29:34.250Z,43.20
2018-08-17T17:32:02.670Z,43.10
2018-08-17T17:34:31.211Z,43.30
2018-08-17T17:36:59.754Z,42.70
2018-08-17T17:39:28.199Z,43.50
2018-08-17T17:41:56.623Z,43.90
2018-08-17T17:44:25.042Z,43.50
2018-08-17T17:46:53.378Z,44.20
2018-08-17T17:49:21.818Z,44.00
2018-08-17T17:51:50.186Z,44.10
2018-08-17T17:54:20.544Z,44.30
2018-08-17T17:57:00.155Z,44.00
2018-08-17T17:59:28.504Z,44.10
2018-08-17T18:01:57.109Z,44.50
2018-08-17T18:04:30.047Z,44.60
2018-08-17T18:06:59.011Z,44.50
2018-08-17T18:09:27.700Z,45.20
2018-08-17T18:11:56.159Z,45.40
2018-08-17T18:14:24.608Z,45.60
2018-08-17T18:16:53.036Z,45.90
2018-08-17T18:19:21.502Z,46.30
2018-08-17T18:21:49.918Z,46.10
2018-08-17T18:24:18.278Z,46.20
2018-08-17T18:26:48.058Z,46.70
2018-08-17T18:29:16.922Z,46.60
2018-08-17T18:31:45.380Z,46.80
2018-08-17T18:34:13.988Z,46.80
2018-08-17T18:36:42.399Z,47.80
2018-08-17T18:39:13.756Z,48.80
2018-08-17T18:41:42.228Z,49.00
2018-08-17T18:44:11.319Z,50.40
2018-08-17T18:46:39.751Z,51.30
2018-08-17T18:49:08.258Z,51.50
2018-08-17T18:51:36.648Z,51.50
2018-08-17T18:54:05.110Z,51.20
2018-08-17T18:56:33.695Z,50.90
2018-08-17T18:59:02.614Z,51.10
2018-08-17T19:01:30.971Z,51.10
2018-08-17T19:03:59.400Z,51.20
2018-08-17T19:06:27.818Z,52.50
2018-08-17T19:08:56.378Z,52.70
2018-08-17T19:11:24.781Z,52.00
2018-08-17T19:13:53.243Z,51.60
2018-08-17T19:16:21.742Z,52.20
2018-08-17T19:18:50.167Z,52.20
2018-08-17T19:21:18.503Z,52.00
2018-08-17T19:23:46.874Z,52.90
2018-08-17T19:26:15.235Z,53.90
2018-08-17T19:28:43.650Z,54.00
2018-08-17T19:31:12.062Z,53.70
2018-08-17T19:33:40.446Z,54.20
2018-08-17T19:36:08.812Z,54.90
2018-08-17T19:38:41.587Z,55.10
2018-08-17T19:41:10.149Z,54.80
2018-08-17T19:43:38.982Z,54.90
2018-08-17T19:46:07.665Z,55.30
2018-08-17T19:48:35.981Z,55.60
2018-08-17T19:51:08.667Z,55.30
2018-08-17T19:53:37.052Z,55.40
2018-08-17T19:56:05.488Z,55.80
2018-08-17T19:58:33.847Z,56.00
2018-08-17T20:01:02.318Z,56.30
2018-08-17T20:03:30.719Z,56.90
2018-08-17T20:05:59.095Z,57.10
2018-08-17T20:08:27.511Z,57.40
2018-08-17T20:10:56.020Z,57.30
2018-08-17T20:13:24.372Z,56.90
2018-08-17T20:15:52.971Z,57.30
2018-08-17T20:18:21.475Z,57.70
2018-08-17T20:20:49.803Z,58.20
2018-08-17T20:23:18.969Z,58.50
2018-08-17T20:25:47.515Z,58.50
2018-08-17T20:28:15.807Z,58.50
2018-08-17T20:30:44.247Z,58.70
2018-08-17T20:33:18.302Z,58.80
2018-08-17T20:35:46.712Z,58.80
2018-08-17T20:38:15.139Z,58.90
2018-08-17T20:40:43.611Z,59.10
2018-08-17T20:43:11.983Z,59.10
2018-08-17T20:45:40.425Z,59.20
2018-08-17T20:48:08.808Z,59.40
2018-08-17T20:50:37.280Z,59.60
2018-08-17T20:53:05.795Z,59.90
2018-08-17T20:55:34.180Z,59.90
2018-08-17T20:58:02.523Z,60.00
2018-08-17T21:00:30.982Z,60.00
2018-08-17T21:02:59.351Z,60.30
2018-08-17T21:05:27.727Z,60.40
2018-08-17T21:07:56.135Z,60.40
2018-08-17T21:10:24.631Z,60.70
2018-08-17T21:12:53.003Z,60.70
2018-08-17T21:15:21.406Z,60.90
2018-08-17T21:17:49.826Z,60.70
2018-08-17T21:20:18.253Z,60.60
2018-08-17T21:22:46.737Z,60.90
2018-08-17T21:25:15.173Z,61.00
2018-08-17T21:27:43.505Z,61.10
2018-08-17T21:30:12.162Z,61.20
2018-08-17T21:32:40.557Z,61.40
2018-08-17T21:35:08.969Z,61.50
2018-08-17T21:37:37.716Z,61.50
2018-08-17T21:40:14.309Z,61.70
2018-08-17T21:42:42.644Z,61.80
2018-08-17T21:45:11.024Z,61.80
2018-08-17T21:47:39.429Z,61.70
2018-08-17T21:50:13.541Z,61.80
2018-08-17T21:52:42.594Z,61.50
2018-08-17T21:55:11.114Z,61.70
2018-08-17T21:57:39.463Z,61.80
2018-08-17T22:00:14.213Z,62.00
2018-08-17T22:02:45.259Z,62.00
2018-08-17T22:05:17.860Z,62.00
2018-08-17T22:07:46.176Z,61.90
2018-08-17T22:10:14.584Z,62.00
2018-08-17T22:12:42.906Z,62.20
2018-08-17T22:15:11.277Z,62.20
2018-08-17T22:17:40.403Z,62.50
2018-08-17T22:20:09.904Z,62.30
2018-08-17T22:22:38.320Z,62.30
2018-08-17T22:25:13.087Z,62.50
2018-08-17T22:27:41.517Z,62.40
2018-08-17T22:30:19.404Z,62.10
2018-08-17T22:32:47.870Z,62.50
2018-08-17T22:35:16.353Z,62.90
2018-08-17T22:37:44.779Z,62.70
2018-08-17T22:40:13.180Z,62.60
2018-08-17T22:42:41.908Z,62.60
2018-08-17T22:45:10.250Z,62.60
2018-08-17T22:47:38.679Z,62.40
2018-08-17T22:50:07.316Z,62.00
2018-08-17T22:52:35.809Z,61.90
2018-08-17T22:55:07.930Z,62.10
2018-08-17T22:57:36.332Z,62.50
2018-08-17T23:00:21.778Z,62.70
2018-08-17T23:02:51.398Z,63.00
2018-08-17T23:05:21.225Z,63.10
2018-08-17T23:07:49.557Z,63.30
2018-08-17T23:10:19.326Z,63.30
2018-08-17T23:12:48.745Z,63.00
2018-08-17T23:15:17.174Z,63.10
2018-08-17T23:17:48.463Z,63.20
2018-08-17T23:20:21.069Z,63.70
2018-08-17T23:22:50.699Z,63.70
2018-08-17T23:25:19.322Z,63.70
2018-08-17T23:27:48.387Z,63.70
2018-08-17T23:30:17.103Z,63.90
2018-08-17T23:32:45.763Z,63.80
2018-08-17T23:35:14.168Z,64.30
2018-08-17T23:37:42.614Z,63.80
2018-08-17T23:40:11.090Z,63.70
2018-08-17T23:42:39.524Z,63.60
2018-08-17T23:45:09.587Z,63.50
2018-08-17T23:47:37.946Z,63.70
2018-08-17T23:50:07.156Z,63.70
2018-08-17T23:52:35.644Z,63.70
2018-08-17T23:55:04.303Z,63.60
2018-08-17T23:57:32.673Z,63.70
